• Join FlightAware (Why Join?)
  • Login
  • US Flag 
09:01AM EDT


 

Airport Tracker/Info


-or-


 

Live Flight TrackerFlight Track Log ✈ TAM3904 ✈ 14-Jun-2013 ✈ SBSP / CGH - SBRJ / SDU

Flight Track Log - Related Links

Times and Time Zones

All times are in EDT time to prevent confusion due to time zone crossing. See the TAM3904 flight status page for this flight to view local times or setup timezone preferences in your user account.

Time Position Orientation Groundspeed Altitude Reporting Facility
EDT Latitude Longitude Course Direction KTS MPH feet Rate Location/Type
07:12AM -23.0976 -44.0368 78° East  Level Estimated
07:13AM -23.0835 -43.9699 77° East  Level Estimated
07:14AM -23.0693 -43.9030 77° East  Level Estimated
07:15AM -23.0551 -43.8362 77° East  Level Estimated
07:16AM -23.0409 -43.7694 77° East  Level Estimated
07:17AM -23.0266 -43.7026 77° East  Level Estimated
07:18AM -23.0124 -43.6358 77° East  Level Estimated
07:19AM -22.9981 -43.5690 77° East  Level Estimated
07:20AM -22.9837 -43.5022 77° East  Level Estimated
07:21AM -22.9694 -43.4355 77° East  Level Estimated
07:22AM -22.9550 -43.3687 77° East  Level Estimated
07:23AM -22.9406 -43.3020 77° East  Level Estimated
07:24AM -22.9261 -43.2353 77° East  Level Estimated
07:25AM -22.9116 -43.1686 77° East  Level Estimated
07:26AM -22.9105 -43.1631 77° East  Level Estimated
07:27AM -22.9105 -43.1631 250° West  Level Estimated
07:28AM -22.9105 -43.1631 250° West  Level Estimated
07:29AM -22.9105 -43.1631 250° West  Level Estimated
07:30AM -22.9105 -43.1631 250° West  Level Estimated
07:31AM -22.9105 -43.1631 250° West  Level Estimated
07:32AM -22.9105 -43.1631 250° West  Level Estimated
07:33AM -22.9105 -43.1631 250° West  Level Estimated